Time;durP1;ratioP1;P1;durP2;ratioP2;P2;SDS_P1;SDS_P2;PMS_P1;PMS_P2;Temp;Humidity;BMP_temperature;BMP_pressure;BME280_temperature;BME280_humidity;BME280_pressure;Samples;Min_cycle;Max_cycle;Signal;HPM_P1;HPM_P2
2023/05/04 00:02:09;;;;;;;13.05;5.78;;;;;;;11.09;nan;-10064.00;4974635;28;20185;-63
2023/05/04 00:04:34;;;;;;;14.43;6.30;;;;;;;11.15;nan;-10704.78;4989398;28;20265;-64
2023/05/04 00:06:59;;;;;;;12.77;6.18;;;;;;;11.06;nan;-11024.47;4974385;28;20173;-63
2023/05/04 00:09:25;;;;;;;8.80;6.03;;;;;;;11.03;nan;-11344.38;4974581;28;20225;-63
2023/05/04 00:11:50;;;;;;;11.38;5.88;;;;;;;11.04;nan;-12304.59;4974481;28;20181;-62
2023/05/04 00:14:15;;;;;;;10.75;5.50;;;;;;;10.92;nan;-12303.53;4973928;28;20264;-64
2023/05/04 00:16:41;;;;;;;10.95;5.78;;;;;;;11.10;nan;-12305.09;4974150;28;20692;-61
2023/05/04 00:19:07;;;;;;;11.05;5.88;;;;;;;10.78;nan;-12942.03;4976571;28;20204;-63
2023/05/04 00:21:32;;;;;;;12.75;5.28;;;;;;;10.84;nan;-13901.97;4974477;28;20177;-64
2023/05/04 00:23:57;;;;;;;12.95;6.43;;;;;;;10.92;nan;-13583.13;4973965;28;20188;-65
2023/05/04 00:26:23;;;;;;;11.35;5.65;;;;;;;11.05;nan;-14224.22;4974472;28;20173;-63
2023/05/04 00:28:48;;;;;;;12.05;6.30;;;;;;;11.03;nan;-14863.56;4974434;28;20173;-62
2023/05/04 00:31:15;;;;;;;14.98;6.50;;;;;;;10.68;nan;-15498.06;4974813;28;20165;-62
2023/05/04 00:33:41;;;;;;;10.03;6.00;;;;;;;10.73;nan;-15818.31;4973903;28;20177;-63
2023/05/04 00:36:06;;;;;;;11.93;6.05;;;;;;;10.70;nan;-15178.81;4974247;28;20256;-63
2023/05/04 00:38:50;;;;;;;13.60;6.07;;;;;;;10.71;nan;-16137.56;4973750;28;20222;-62
2023/05/04 00:41:17;;;;;;;12.07;6.40;;;;;;;11.06;nan;-16142.78;4973747;28;20165;-63
2023/05/04 00:43:43;;;;;;;14.10;6.13;;;;;;;10.96;nan;-16780.47;4974290;28;20655;-62
2023/05/04 00:46:10;;;;;;;10.77;6.25;;;;;;;11.01;nan;-17420.25;4973973;28;20573;-64
2023/05/04 00:48:40;;;;;;;12.90;6.60;;;;;;;11.01;nan;-17739.72;4973584;28;20256;-63
2023/05/04 00:51:06;;;;;;;12.65;5.90;;;;;;;10.87;nan;-17737.25;4973895;28;20692;-65
2023/05/04 00:53:32;;;;;;;13.02;5.95;;;;;;;10.58;nan;-18051.41;4975435;28;20173;-63
2023/05/04 00:55:57;;;;;;;10.75;5.78;;;;;;;10.85;nan;-18056.25;4974819;28;20193;-63
2023/05/04 00:58:23;;;;;;;11.57;5.30;;;;;;;11.01;nan;-17100.81;4973827;28;20211;-63
2023/05/04 01:00:49;;;;;;;9.60;5.25;;;;;;;10.83;nan;-17417.16;4972436;28;20323;-63
2023/05/04 01:03:15;;;;;;;9.07;6.25;;;;;;;10.70;nan;-17414.91;4973143;28;20244;-64
2023/05/04 01:05:50;;;;;;;10.00;5.32;;;;;;;10.69;nan;-17734.13;4973206;28;20173;-61
2023/05/04 01:08:18;;;;;;;13.85;6.30;;;;;;;10.91;nan;-17418.63;4973019;28;20192;-63
2023/05/04 01:10:55;;;;;;;16.13;5.85;;;;;;;10.99;nan;-18058.81;4972012;28;20275;-63
2023/05/04 01:13:21;;;;;;;12.23;6.68;;;;;;;10.96;nan;-18058.34;4973135;28;20637;-63
2023/05/04 01:15:48;;;;;;;10.30;5.93;;;;;;;10.90;nan;-18376.53;4972940;28;20174;-62
2023/05/04 01:18:13;;;;;;;10.57;6.25;;;;;;;11.01;nan;-18698.06;4973124;28;20562;-64
2023/05/04 01:20:39;;;;;;;12.50;6.82;;;;;;;10.86;nan;-18695.06;4972794;28;20178;-62
2023/05/04 01:23:04;;;;;;;10.25;6.22;;;;;;;10.83;nan;-19652.16;4972799;28;20173;-62
2023/05/04 01:25:38;;;;;;;14.80;7.43;;;;;;;10.73;nan;-18692.56;4972984;28;20177;-63
2023/05/04 01:28:08;;;;;;;16.50;7.68;;;;;;;10.98;nan;-18697.50;4972795;28;20182;-62
2023/05/04 01:30:43;;;;;;;19.38;6.68;;;;;;;10.94;nan;-19335.31;4972822;28;20597;-63
2023/05/04 01:33:10;;;;;;;16.17;6.43;;;;;;;10.47;nan;-19644.75;4971940;28;20231;-62
2023/05/04 01:35:36;;;;;;;14.73;6.83;;;;;;;10.68;nan;-19649.03;4972748;28;20618;-63
2023/05/04 01:38:01;;;;;;;17.80;6.43;;;;;;;10.59;nan;-19966.28;4973347;28;20212;-64
2023/05/04 01:40:27;;;;;;;14.27;6.70;;;;;;;10.57;nan;-20284.97;4973311;28;20209;-62
2023/05/04 01:42:52;;;;;;;12.77;6.70;;;;;;;10.91;nan;-19653.94;4988023;28;20178;-64
2023/05/04 01:45:18;;;;;;;13.97;7.17;;;;;;;10.89;nan;-19653.44;4973047;28;20636;-62
2023/05/04 01:47:44;;;;;;;12.37;6.47;;;;;;;10.86;nan;-19652.91;4973294;28;20166;-62
2023/05/04 01:50:10;;;;;;;12.82;6.60;;;;;;;11.02;nan;-20294.75;4972892;28;20252;-63
2023/05/04 01:52:35;;;;;;;22.85;7.18;;;;;;;10.99;nan;-19655.50;4973304;28;20268;-63
2023/05/04 01:55:01;;;;;;;13.60;6.55;;;;;;;10.67;nan;-20287.06;4976472;28;20284;-64
2023/05/04 01:57:26;;;;;;;11.73;6.43;;;;;;;11.04;nan;-19975.84;4973452;28;20733;-63
2023/05/04 01:59:52;;;;;;;14.27;6.60;;;;;;;11.17;nan;-19020.41;4973347;28;20201;-63
2023/05/04 02:02:17;;;;;;;14.77;6.85;;;;;;;10.93;nan;-19335.13;4973117;28;20174;-63
2023/05/04 02:04:43;;;;;;;11.70;6.38;;;;;;;10.97;nan;-19655.09;4972736;28;20188;-62
2023/05/04 02:07:08;;;;;;;13.10;6.77;;;;;;;10.69;nan;-19968.34;4973474;28;20173;-62
2023/05/04 02:09:34;;;;;;;11.60;6.60;;;;;;;11.03;nan;-20294.97;4972643;28;20743;-64
2023/05/04 02:11:59;;;;;;;11.23;5.80;;;;;;;10.71;nan;-19968.88;4972838;28;20205;-64
2023/05/04 02:14:25;;;;;;;9.82;6.35;;;;;;;10.86;nan;-19971.97;4973291;28;20537;-64
2023/05/04 02:16:50;;;;;;;15.38;6.13;;;;;;;10.76;nan;-20288.94;4972492;28;20198;-63
2023/05/04 02:19:16;;;;;;;11.20;6.38;;;;;;;11.09;nan;-19976.91;4972645;28;20605;-64
2023/05/04 02:21:41;;;;;;;11.02;6.32;;;;;;;11.03;nan;-19656.34;4975378;28;20621;-63
2023/05/04 02:24:07;;;;;;;12.00;5.97;;;;;;;10.67;nan;-20287.06;4976686;28;20178;-63
2023/05/04 02:26:33;;;;;;;12.40;6.80;;;;;;;10.98;nan;-20612.94;4976555;28;20174;-63
2023/05/04 02:28:58;;;;;;;11.95;6.63;;;;;;;11.04;nan;-20614.28;4976227;28;20641;-64
2023/05/04 02:31:24;;;;;;;16.08;6.75;;;;;;;10.81;nan;-19651.84;4976261;28;20178;-63
2023/05/04 02:33:50;;;;;;;11.35;6.18;;;;;;;10.84;nan;-19971.66;4975870;28;20177;-63
2023/05/04 02:36:16;;;;;;;15.73;7.43;;;;;;;10.99;nan;-19974.88;4976508;28;20208;-64
2023/05/04 02:38:41;;;;;;;12.77;6.93;;;;;;;10.72;nan;-19969.09;4976226;28;20177;-63
2023/05/04 02:41:06;;;;;;;16.13;7.20;;;;;;;11.04;nan;-19975.84;4975833;28;20250;-64
2023/05/04 02:43:32;;;;;;;11.88;6.05;;;;;;;10.68;nan;-20287.28;4975980;28;20256;-63
2023/05/04 02:45:57;;;;;;;12.88;6.38;;;;;;;10.87;nan;-20610.47;4976305;28;20165;-63
2023/05/04 02:48:26;;;;;;;12.27;6.90;;;;;;;10.86;nan;-20291.22;4975827;28;20166;-62
2023/05/04 02:50:51;;;;;;;12.00;6.40;;;;;;;10.93;nan;-20611.94;4976162;28;20552;-62
2023/05/04 02:53:16;;;;;;;12.93;6.10;;;;;;;10.62;nan;-21880.75;4975116;28;20212;-64
2023/05/04 02:55:42;;;;;;;14.65;6.45;;;;;;;11.03;nan;-22209.59;4978609;28;20170;-62
2023/05/04 02:58:07;;;;;;;10.43;5.57;;;;;;;10.66;nan;-22519.28;4977143;28;20208;-63
2023/05/04 03:00:33;;;;;;;16.33;6.05;;;;;;;10.98;nan;-22527.34;4974493;28;20212;-64
2023/05/04 03:02:58;;;;;;;12.23;5.25;;;;;;;10.80;nan;-22841.59;4974759;28;20679;-63
2023/05/04 03:05:24;;;;;;;12.75;5.65;;;;;;;10.48;nan;-23789.44;4975156;28;20193;-64
2023/05/04 03:07:49;;;;;;;11.57;5.87;;;;;;;10.20;nan;-24101.97;4990100;28;20177;-64
2023/05/04 03:10:15;;;;;;;13.40;5.87;;;;;;;10.53;nan;-24111.13;4974095;28;20775;-63
2023/05/04 03:12:40;;;;;;;12.67;6.20;;;;;;;10.47;nan;-24109.44;4990109;28;20173;-63
2023/05/04 03:15:06;;;;;;;10.60;5.47;;;;;;;10.39;nan;-24107.31;4975007;28;20637;-64
2023/05/04 03:17:32;;;;;;;11.07;5.87;;;;;;;10.28;nan;-24104.06;4974633;28;20201;-65
2023/05/04 03:19:57;;;;;;;8.40;5.47;;;;;;;10.38;nan;-24107.03;4974865;28;20712;-62
2023/05/04 03:22:23;;;;;;;13.13;6.17;;;;;;;10.39;nan;-24107.31;4976630;28;20181;-61
2023/05/04 03:24:48;;;;;;;13.00;5.38;;;;;;;10.48;nan;-24109.88;4974990;28;20185;-63
2023/05/04 03:27:14;;;;;;;10.27;5.27;;;;;;;10.34;nan;-24105.91;4975023;28;20209;-64
2023/05/04 03:29:39;;;;;;;17.30;5.50;;;;;;;10.20;nan;-24101.97;4974911;28;20209;-61
2023/05/04 03:32:05;;;;;;;10.07;5.40;;;;;;;10.30;nan;-24104.66;4976879;28;20200;-63
2023/05/04 03:34:30;;;;;;;10.17;4.87;;;;;;;10.15;nan;-24100.53;4973911;28;20232;-64
2023/05/04 03:36:56;;;;;;;11.60;6.30;;;;;;;10.31;nan;-24105.06;4974535;28;20197;-64
2023/05/04 03:39:22;;;;;;;9.40;6.00;;;;;;;10.12;nan;-24099.84;4975161;28;20185;-64
2023/05/04 03:41:48;;;;;;;10.43;5.83;;;;;;;10.07;nan;-24098.44;4974886;28;20216;-63
2023/05/04 03:44:13;;;;;;;10.17;5.43;;;;;;;9.92;nan;-24094.19;4974398;28;20263;-63
2023/05/04 03:46:39;;;;;;;14.50;7.03;;;;;;;10.30;nan;-24104.66;4974303;28;20760;-63
2023/05/04 03:49:04;;;;;;;15.30;7.30;;;;;;;10.36;nan;-24106.34;4974314;28;20181;-63
2023/05/04 03:51:30;;;;;;;14.23;6.40;;;;;;;10.10;nan;-24099.28;4974647;28;20173;-62
2023/05/04 03:53:55;;;;;;;19.23;7.47;;;;;;;10.17;nan;-24101.25;4975223;28;20252;-63
2023/05/04 03:56:21;;;;;;;12.47;6.73;;;;;;;10.26;nan;-24103.66;4976059;28;20687;-63
2023/05/04 03:58:46;;;;;;;16.60;7.57;;;;;;;10.09;nan;-24098.84;4974410;28;20292;-64
2023/05/04 04:01:12;;;;;;;16.23;6.87;;;;;;;10.40;nan;-24107.63;4974146;28;20177;-63
2023/05/04 04:03:37;;;;;;;14.27;6.90;;;;;;;10.31;nan;-24104.94;4974615;28;20180;-63
2023/05/04 04:06:04;;;;;;;14.52;7.57;;;;;;;10.52;nan;-24111.00;4974719;28;20174;-63
2023/05/04 04:08:30;;;;;;;13.50;6.97;;;;;;;10.32;nan;-24105.22;4976325;28;20181;-62
2023/05/04 04:10:56;;;;;;;13.93;7.43;;;;;;;10.54;nan;-24111.56;4973849;28;20605;-63
2023/05/04 04:13:21;;;;;;;14.50;7.40;;;;;;;10.62;nan;-24113.69;4974254;28;20185;-64
2023/05/04 04:15:46;;;;;;;15.30;7.88;;;;;;;10.63;nan;-24113.97;4974061;28;20636;-62
2023/05/04 04:18:12;;;;;;;17.35;8.52;;;;;;;10.47;nan;-24109.59;4974440;28;20196;-65
2023/05/04 04:20:37;;;;;;;16.13;8.07;;;;;;;10.54;nan;-24111.56;4974154;28;20189;-63
2023/05/04 04:23:03;;;;;;;14.65;7.45;;;;;;;10.60;nan;-24113.13;4973841;28;20189;-63
2023/05/04 04:25:29;;;;;;;15.27;8.02;;;;;;;10.57;nan;-24112.41;4973845;28;20189;-65
2023/05/04 04:27:55;;;;;;;19.73;8.37;;;;;;;10.72;nan;-24116.50;4974005;28;20644;-64
2023/05/04 04:30:21;;;;;;;14.38;6.80;;;;;;;10.81;nan;-24118.91;4973964;28;20170;-65
2023/05/04 04:32:46;;;;;;;13.57;6.80;;;;;;;10.80;nan;-24118.75;4972418;28;20203;-63
2023/05/04 04:35:13;;;;;;;12.70;6.65;;;;;;;10.90;nan;-24121.44;4973330;28;20275;-63
2023/05/04 04:37:38;;;;;;;12.93;6.18;;;;;;;10.64;nan;-24114.38;4973635;28;20672;-61
2023/05/04 04:40:06;;;;;;;10.88;6.07;;;;;;;10.46;nan;-24109.31;4973558;28;20312;-66
2023/05/04 04:42:31;;;;;;;11.13;6.25;;;;;;;10.66;nan;-24114.66;4973317;28;20201;-64
2023/05/04 04:44:57;;;;;;;11.68;6.97;;;;;;;10.95;nan;-24123.00;4972992;28;20250;-63
2023/05/04 04:47:22;;;;;;;13.02;7.05;;;;;;;11.08;nan;-24126.50;4971833;28;20260;-63
2023/05/04 04:49:48;;;;;;;15.07;7.30;;;;;;;10.56;nan;-24112.13;4973806;28;20197;-64
2023/05/04 04:52:13;;;;;;;13.07;7.25;;;;;;;10.96;nan;-24123.25;4977046;28;20568;-66
2023/05/04 04:54:38;;;;;;;13.45;7.00;;;;;;;11.16;nan;-24128.63;4975691;28;20612;-64
2023/05/04 04:57:04;;;;;;;11.27;7.47;;;;;;;10.94;nan;-24122.56;4973129;28;20672;-64
2023/05/04 04:59:30;;;;;;;15.02;7.28;;;;;;;11.00;nan;-24124.41;4972428;28;20271;-65
2023/05/04 05:01:56;;;;;;;16.20;7.20;;;;;;;11.02;nan;-24124.97;4973037;28;20260;-64
2023/05/04 05:04:22;;;;;;;12.77;6.53;;;;;;;11.02;nan;-24124.81;4972933;28;20189;-64
2023/05/04 05:06:48;;;;;;;15.70;7.40;;;;;;;10.80;nan;-24118.63;4972811;28;20180;-63
2023/05/04 05:09:14;;;;;;;14.40;7.30;;;;;;;11.05;nan;-24125.81;4972894;28;20625;-64
2023/05/04 05:11:39;;;;;;;12.80;7.00;;;;;;;11.29;nan;-24132.28;4972972;28;20231;-64
2023/05/04 05:14:05;;;;;;;13.30;6.93;;;;;;;11.08;nan;-24126.50;4972342;28;20547;-64
2023/05/04 05:16:30;;;;;;;13.13;6.15;;;;;;;11.00;nan;-24124.41;4972630;28;20193;-66
2023/05/04 05:18:56;;;;;;;13.25;6.65;;;;;;;11.22;nan;-24130.47;4972682;28;20174;-65
2023/05/04 05:21:21;;;;;;;12.63;6.25;;;;;;;11.16;nan;-24128.63;4972720;28;20161;-66
2023/05/04 05:23:47;;;;;;;12.00;6.13;;;;;;;11.12;nan;-24127.63;4971550;28;20177;-64
2023/05/04 05:26:12;;;;;;;9.35;5.60;;;;;;;10.90;nan;-24121.56;4972692;28;20227;-65
2023/05/04 05:28:38;;;;;;;14.32;6.50;;;;;;;10.97;nan;-24123.41;4972827;28;20172;-65
2023/05/04 05:31:03;;;;;;;11.88;6.53;;;;;;;11.26;nan;-24131.59;4971246;28;20185;-64
2023/05/04 05:33:29;;;;;;;10.38;5.97;;;;;;;11.31;nan;-24133.00;4972880;28;20169;-63
2023/05/04 05:35:54;;;;;;;12.95;5.70;;;;;;;11.13;nan;-24127.78;4972499;28;20181;-65
2023/05/04 05:38:20;;;;;;;13.63;6.32;;;;;;;11.48;nan;-24137.78;4972627;28;20716;-64
2023/05/04 05:40:47;;;;;;;11.02;6.38;;;;;;;11.16;nan;-24128.63;4972776;28;20185;-64
2023/05/04 05:43:12;;;;;;;10.70;5.75;;;;;;;11.11;nan;-24127.22;4972400;28;20226;-65
2023/05/04 05:45:38;;;;;;;11.88;5.95;;;;;;;11.45;nan;-24136.94;4971866;28;20340;-66
2023/05/04 05:48:04;;;;;;;12.95;6.10;;;;;;;11.32;nan;-24133.28;4972266;28;20157;-65
2023/05/04 05:50:29;;;;;;;8.35;5.00;;;;;;;11.07;nan;-24126.38;4972975;28;20185;-64
2023/05/04 05:52:55;;;;;;;6.93;4.95;;;;;;;10.77;nan;-24117.78;4973000;28;20174;-64
2023/05/04 05:55:20;;;;;;;10.73;5.32;;;;;;;11.02;nan;-24124.97;4975755;28;20174;-64
2023/05/04 05:57:46;;;;;;;10.68;5.20;;;;;;;11.01;nan;-24124.53;4974576;28;20371;-65
2023/05/04 06:00:12;;;;;;;9.50;4.82;;;;;;;11.31;nan;-24132.84;4976102;28;20234;-64
2023/05/04 06:02:37;;;;;;;7.78;4.85;;;;;;;11.07;nan;-24126.38;4977114;28;20532;-65
2023/05/04 06:05:03;;;;;;;8.02;4.65;;;;;;;11.26;nan;-24131.44;4976513;28;20180;-64
2023/05/04 06:07:29;;;;;;;9.20;5.32;;;;;;;11.23;nan;-24130.59;4976389;28;20289;-63
2023/05/04 06:09:55;;;;;;;6.50;4.28;;;;;;;11.46;nan;-24137.09;4976072;28;20245;-64
2023/05/04 06:12:21;;;;;;;9.68;5.15;;;;;;;11.37;nan;-24134.69;4976412;28;20177;-62
2023/05/04 06:14:46;;;;;;;10.65;5.90;;;;;;;11.40;nan;-24135.38;4976564;28;20309;-65
2023/05/04 06:17:12;;;;;;;7.32;4.88;;;;;;;11.05;nan;-24125.81;4976832;28;20248;-65
2023/05/04 06:19:38;;;;;;;9.88;5.30;;;;;;;11.54;nan;-24139.34;4976342;28;20182;-65
2023/05/04 06:22:04;;;;;;;11.30;5.07;;;;;;;11.33;nan;-24133.41;4976472;28;20168;-67
2023/05/04 06:24:31;;;;;;;9.90;5.82;;;;;;;11.70;nan;-24143.84;4976177;28;20179;-65
2023/05/04 06:26:56;;;;;;;13.00;5.50;;;;;;;11.43;nan;-24136.38;4978403;28;20239;-64
2023/05/04 06:29:23;;;;;;;11.48;6.10;;;;;;;11.28;nan;-24132.00;4979941;28;20201;-65
2023/05/04 06:31:48;;;;;;;13.80;5.85;;;;;;;11.36;nan;-24134.25;4976237;28;20268;-65
2023/05/04 06:34:17;;;;;;;14.20;5.32;;;;;;;11.34;nan;-24133.84;4978309;28;20192;-63
2023/05/04 06:36:43;;;;;;;11.93;6.25;;;;;;;11.48;nan;-24137.63;4980161;28;20205;-65
2023/05/04 06:39:09;;;;;;;11.00;5.80;;;;;;;11.85;nan;-24147.94;4978111;28;20217;-64
2023/05/04 06:41:35;;;;;;;12.00;6.22;;;;;;;11.53;nan;-24139.19;4980339;28;20277;-65
2023/05/04 06:44:04;;;;;;;10.30;6.10;;;;;;;11.81;nan;-24146.81;4975681;28;20212;-64
2023/05/04 06:46:30;;;;;;;14.27;5.78;;;;;;;11.80;nan;-24146.66;4980412;28;20203;-63
2023/05/04 06:48:57;;;;;;;11.48;6.47;;;;;;;12.25;nan;-24159.19;4975899;28;20664;-66
2023/05/04 06:51:22;;;;;;;12.68;6.28;;;;;;;12.39;nan;-24163.13;4975291;28;20189;-65
2023/05/04 06:53:47;;;;;;;12.23;7.20;;;;;;;12.34;nan;-23201.16;4977663;28;20553;-65
2023/05/04 06:56:13;;;;;;;12.43;6.20;;;;;;;12.32;nan;-23200.63;4979040;28;20201;-66
2023/05/04 06:58:38;;;;;;;12.20;6.72;;;;;;;12.60;nan;-23847.34;4975818;28;20181;-65
2023/05/04 07:01:07;;;;;;;14.18;6.53;;;;;;;12.71;nan;-23530.50;4977713;28;20244;-65
2023/05/04 07:03:33;;;;;;;14.55;6.88;;;;;;;12.52;nan;-22885.94;4975766;28;20647;-64
2023/05/04 07:05:59;;;;;;;13.40;6.82;;;;;;;12.78;nan;-23852.31;4976036;28;20182;-64
2023/05/04 07:08:24;;;;;;;12.98;7.07;;;;;;;12.72;nan;-22891.16;4974448;28;20196;-65
2023/05/04 07:10:50;;;;;;;15.77;7.32;;;;;;;12.61;nan;-23208.19;4975406;28;20217;-65
2023/05/04 07:13:15;;;;;;;17.08;8.18;;;;;;;12.86;nan;-23534.56;4975007;28;20182;-65
2023/05/04 07:15:41;;;;;;;15.10;7.63;;;;;;;12.42;nan;-23842.25;4975136;28;20260;-65
2023/05/04 07:18:06;;;;;;;18.38;8.60;;;;;;;12.69;nan;-23529.97;4975282;28;20216;-64
2023/05/04 07:20:32;;;;;;;17.42;8.65;;;;;;;12.76;nan;-22252.53;4975047;28;20169;-64
2023/05/04 07:22:57;;;;;;;17.33;8.88;;;;;;;12.65;nan;-23209.25;4975370;28;20177;-64
2023/05/04 07:25:26;;;;;;;17.63;9.15;;;;;;;12.45;nan;-23203.81;4974761;28;20169;-65
2023/05/04 07:27:52;;;;;;;23.27;9.25;;;;;;;12.60;nan;-22888.16;4975086;28;20193;-65
2023/05/04 07:30:18;;;;;;;18.13;8.95;;;;;;;13.08;nan;-22580.47;4975504;28;20536;-64
2023/05/04 07:32:43;;;;;;;16.70;9.32;;;;;;;13.36;nan;-21947.03;4974739;28;20317;-64
2023/05/04 07:35:09;;;;;;;17.77;9.00;;;;;;;13.49;nan;-20027.50;4974847;28;20260;-65
2023/05/04 07:37:35;;;;;;;19.35;8.75;;;;;;;13.47;nan;-17782.72;4974159;28;20262;-64
2023/05/04 07:40:00;;;;;;;18.30;8.65;;;;;;;13.77;nan;-14577.44;4974381;28;20660;-65
2023/05/04 07:42:27;;;;;;;14.73;8.27;;;;;;;13.73;nan;-15219.25;4990271;28;20192;-64
2023/05/04 07:44:52;;;;;;;15.90;8.30;;;;;;;14.32;nan;-14905.69;4974335;28;20165;-63
2023/05/04 07:47:18;;;;;;;18.60;8.18;;;;;;;14.48;nan;-12656.09;4974926;28;20186;-65
2023/05/04 07:49:44;;;;;;;18.55;8.20;;;;;;;13.98;nan;-12008.50;4974874;28;20656;-64
2023/05/04 07:52:10;;;;;;;15.68;7.55;;;;;;;14.49;nan;-10724.97;4974562;28;20178;-65
2023/05/04 07:54:35;;;;;;;17.77;7.70;;;;;;;14.63;nan;-9437.41;4974298;28;20641;-63
2023/05/04 07:57:02;;;;;;;15.43;8.32;;;;;;;14.49;nan;-10724.97;4977288;28;20228;-65
2023/05/04 07:59:29;;;;;;;14.27;7.82;;;;;;;14.61;nan;-9437.34;4974475;28;20172;-65
2023/05/04 08:01:54;;;;;;;15.77;9.13;;;;;;;14.54;nan;-11047.25;4973961;28;20177;-65
2023/05/04 08:04:20;;;;;;;17.20;8.07;;;;;;;14.52;nan;-10725.16;4974384;28;20236;-65
2023/05/04 08:06:45;;;;;;;18.15;7.60;;;;;;;14.41;nan;-8470.28;4974887;28;20305;-66
2023/05/04 08:09:11;;;;;;;12.75;7.28;;;;;;;14.52;nan;-8792.72;4973994;28;20632;-64
2023/05/04 08:11:38;;;;;;;11.35;7.05;;;;;;;14.07;nan;-12973.97;4974415;28;20176;-64
2023/05/04 08:14:03;;;;;;;15.00;7.80;;;;;;;14.34;nan;-12333.09;4974433;28;20177;-64
2023/05/04 08:16:29;;;;;;;13.35;7.00;;;;;;;14.03;nan;-13295.06;4973946;28;20275;-65
2023/05/04 08:18:56;;;;;;;14.35;7.10;;;;;;;13.94;nan;-12651.19;4973892;28;20169;-64
2023/05/04 08:21:21;;;;;;;15.25;7.82;;;;;;;13.96;nan;-14258.53;4973464;28;20174;-62
2023/05/04 08:23:47;;;;;;;19.00;7.97;;;;;;;13.95;nan;-12651.31;4974130;28;20181;-65
2023/05/04 08:26:13;;;;;;;11.95;7.05;;;;;;;13.66;nan;-13933.75;4973994;28;20174;-64
2023/05/04 08:28:44;;;;;;;14.82;7.78;;;;;;;13.62;nan;-14575.63;4974152;28;20691;-64
2023/05/04 08:31:10;;;;;;;13.60;7.22;;;;;;;13.62;nan;-15538.88;4974331;28;20533;-64
2023/05/04 08:33:35;;;;;;;15.32;7.68;;;;;;;14.01;nan;-15544.31;4973781;28;20181;-64
2023/05/04 08:36:01;;;;;;;13.82;7.95;;;;;;;13.79;nan;-14577.69;4973400;28;20600;-63
2023/05/04 08:38:28;;;;;;;16.35;7.82;;;;;;;13.78;nan;-15219.97;4973168;28;20180;-65
2023/05/04 08:40:54;;;;;;;17.27;9.20;;;;;;;13.59;nan;-15217.50;4973749;28;20193;-64
2023/05/04 08:43:19;;;;;;;19.80;8.82;;;;;;;13.24;nan;-17137.44;4973540;28;20177;-66
2023/05/04 08:45:44;;;;;;;15.15;8.05;;;;;;;13.50;nan;-15858.16;4972434;28;20174;-64
2023/05/04 08:48:10;;;;;;;14.50;8.40;;;;;;;13.69;nan;-15860.91;4972977;28;20722;-63
2023/05/04 08:50:36;;;;;;;14.48;7.65;;;;;;;13.61;nan;-16501.78;4973065;28;20205;-64
2023/05/04 08:53:05;;;;;;;15.80;8.25;;;;;;;13.45;nan;-16499.28;4972627;28;20664;-65
2023/05/04 08:55:36;;;;;;;17.98;8.05;;;;;;;13.72;nan;-17145.31;4974593;28;20174;-63
2023/05/04 08:58:06;;;;;;;15.40;8.15;;;;;;;13.63;nan;-16822.94;4974909;28;20620;-63
2023/05/04 09:00:33;;;;;;;19.20;8.57;;;;;;;13.67;nan;-16181.66;4973107;28;20170;-62
2023/05/04 09:03:02;;;;;;;18.45;9.25;;;;;;;13.82;nan;-16504.97;4973123;28;20165;-65
2023/05/04 09:05:28;;;;;;;14.70;7.85;;;;;;;13.54;nan;-15537.78;4972883;28;20240;-64
2023/05/04 09:07:53;;;;;;;16.65;8.40;;;;;;;13.66;nan;-17465.22;4972690;28;20645;-64
2023/05/04 09:10:19;;;;;;;18.35;8.35;;;;;;;13.87;nan;-15863.53;4972803;28;20225;-65
2023/05/04 09:12:45;;;;;;;24.00;9.10;;;;;;;14.30;nan;-12654.50;4972723;28;20570;-65
2023/05/04 09:15:15;;;;;;;16.02;8.43;;;;;;;14.49;nan;-9436.88;4987808;28;20525;-64
2023/05/04 09:17:41;;;;;;;16.05;8.02;;;;;;;14.14;nan;-12974.66;4972144;28;20193;-65
2023/05/04 09:20:08;;;;;;;21.65;9.57;;;;;;;14.30;nan;-12654.44;4987049;28;20648;-64
2023/05/04 09:22:34;;;;;;;17.10;9.55;;;;;;;14.29;nan;-10723.81;4973285;28;20485;-65
2023/05/04 09:25:09;;;;;;;18.20;9.55;;;;;;;14.31;nan;-12654.53;4973165;28;20185;-63
2023/05/04 09:27:35;;;;;;;17.13;9.00;;;;;;;14.29;nan;-12332.72;4973094;28;20227;-64
2023/05/04 09:30:00;;;;;;;18.50;9.25;;;;;;;14.27;nan;-11367.31;4972757;28;20704;-64
2023/05/04 09:32:27;;;;;;;19.70;9.23;;;;;;;13.84;nan;-12328.84;4971855;28;20173;-64
2023/05/04 09:34:53;;;;;;;17.45;9.00;;;;;;;13.75;nan;-12328.03;4972443;28;20181;-64
2023/05/04 09:37:22;;;;;;;22.85;10.15;;;;;;;13.95;nan;-12972.81;4972846;28;20220;-64
2023/05/04 09:39:52;;;;;;;20.75;9.13;;;;;;;13.58;nan;-14254.03;4972363;28;20260;-65
2023/05/04 09:42:19;;;;;;;16.48;8.70;;;;;;;13.99;nan;-15222.81;4972839;28;20197;-65
2023/05/04 09:44:45;;;;;;;19.15;9.48;;;;;;;13.96;nan;-14901.06;4972694;28;20185;-64
2023/05/04 09:47:10;;;;;;;26.20;10.15;;;;;;;14.26;nan;-15547.72;4972209;28;20553;-64
2023/05/04 09:49:36;;;;;;;20.85;9.82;;;;;;;14.27;nan;-12975.81;4972350;28;20553;-65
2023/05/04 09:52:04;;;;;;;19.45;8.65;;;;;;;14.02;nan;-11365.59;4972522;28;20315;-64
2023/05/04 09:54:34;;;;;;;19.63;9.43;;;;;;;13.63;nan;-14254.66;4972811;28;20181;-64
2023/05/04 09:57:11;;;;;;;20.05;10.20;;;;;;;13.67;nan;-17144.59;4976311;28;20208;-63
2023/05/04 09:59:38;;;;;;;22.13;10.00;;;;;;;13.76;nan;-18108.69;4973852;28;20173;-64
2023/05/04 10:02:05;;;;;;;19.73;10.15;;;;;;;13.86;nan;-17789.50;4972686;28;20304;-63
2023/05/04 10:04:35;;;;;;;22.63;10.57;;;;;;;13.57;nan;-19388.00;4972634;28;20170;-66
2023/05/04 10:07:04;;;;;;;21.65;9.63;;;;;;;14.04;nan;-19397.53;4972701;28;20180;-64
2023/05/04 10:09:31;;;;;;;20.77;9.80;;;;;;;14.06;nan;-19076.94;4972217;28;20300;-65
2023/05/04 10:12:02;;;;;;;23.20;10.68;;;;;;;13.90;nan;-19073.88;4972016;28;20180;-64
2023/05/04 10:14:32;;;;;;;20.27;9.30;;;;;;;13.88;nan;-18752.63;4972637;28;20205;-65
2023/05/04 10:16:58;;;;;;;18.63;9.50;;;;;;;14.24;nan;-19080.38;4972469;28;20193;-64
2023/05/04 10:19:58;;;;;;;21.70;10.25;;;;;;;13.99;nan;-18754.75;4972616;28;20316;-64
2023/05/04 10:22:44;;;;;;;18.63;9.18;;;;;;;14.10;nan;-19398.63;4972522;28;20177;-66
2023/05/04 10:25:13;;;;;;;27.02;10.95;;;;;;;14.49;nan;-19085.28;4972191;28;20200;-64
2023/05/04 10:27:45;;;;;;;22.60;10.80;;;;;;;14.62;nan;-18445.28;4972134;28;20181;-64
2023/05/04 10:30:12;;;;;;;23.42;11.00;;;;;;;14.60;nan;-17159.72;4972272;28;20174;-65
2023/05/04 10:32:38;;;;;;;21.75;9.75;;;;;;;14.85;nan;-15877.44;4972326;28;20577;-64
2023/05/04 10:35:08;;;;;;;24.08;10.40;;;;;;;15.17;nan;-12984.44;4971935;28;20169;-64
2023/05/04 10:37:36;;;;;;;26.48;10.40;;;;;;;15.40;nan;-11375.22;4972548;28;20208;-66
2023/05/04 10:40:06;;;;;;;22.95;9.88;;;;;;;15.17;nan;-12662.31;4972400;28;20656;-65
2023/05/04 10:42:42;;;;;;;18.48;9.65;;;;;;;15.45;nan;-13631.56;4972788;28;20214;-63
2023/05/04 10:45:08;;;;;;;22.75;10.52;;;;;;;15.67;nan;-13633.84;4975507;28;20173;-64
2023/05/04 10:47:35;;;;;;;20.98;9.82;;;;;;;16.03;nan;-9765.59;4975568;28;20616;-65
2023/05/04 10:50:05;;;;;;;22.65;9.70;;;;;;;16.19;nan;-6858.50;4976102;28;20178;-64
2023/05/04 10:52:52;;;;;;;22.25;9.57;;;;;;;16.02;nan;-6858.56;4975552;28;20173;-65
2023/05/04 10:55:19;;;;;;;18.83;9.27;;;;;;;15.91;nan;-3302.69;4975906;28;20181;-64
2023/05/04 10:57:50;;;;;;;22.30;9.98;;;;;;;15.99;nan;-713.38;4982053;28;20691;-65
2023/05/04 11:00:17;;;;;;;19.27;9.30;;;;;;;15.89;nan;2200.16;4975488;28;20189;-66
2023/05/04 11:02:43;;;;;;;17.63;9.05;;;;;;;15.85;nan;1551.72;4977544;28;20196;-66
2023/05/04 11:05:14;;;;;;;19.50;10.15;;;;;;;15.55;nan;-1688.28;4975595;28;20183;-65
2023/05/04 11:07:40;;;;;;;21.77;9.90;;;;;;;15.81;nan;-2979.88;4975874;28;20670;-67
2023/05/04 11:10:08;;;;;;;23.80;10.23;;;;;;;16.11;nan;-4918.78;4975028;28;20315;-64
2023/05/04 11:12:34;;;;;;;19.60;8.93;;;;;;;15.89;nan;-5566.06;4974967;28;20252;-64
2023/05/04 11:15:04;;;;;;;15.10;8.43;;;;;;;16.24;nan;-5565.19;4990947;28;20711;-66
2023/05/04 11:17:29;;;;;;;22.52;9.93;;;;;;;16.32;nan;-3623.81;4990155;28;20205;-65
2023/05/04 11:19:55;;;;;;;18.40;8.93;;;;;;;16.18;nan;-4918.56;4975683;28;20205;-65
2023/05/04 11:22:20;;;;;;;16.75;8.23;;;;;;;15.95;nan;-5889.13;4975371;28;20248;-64
2023/05/04 11:24:49;;;;;;;18.08;8.40;;;;;;;16.12;nan;-6212.06;4975091;28;20177;-65
2023/05/04 11:27:26;;;;;;;19.63;9.18;;;;;;;16.19;nan;-5565.31;4975264;28;20183;-64
2023/05/04 11:29:59;;;;;;;20.63;9.65;;;;;;;16.33;nan;-2976.44;4975269;28;20169;-64
2023/05/04 11:32:42;;;;;;;19.20;9.38;;;;;;;16.65;nan;-4916.84;4974993;28;20637;-64